Time;durP1;ratioP1;P1;durP2;ratioP2;P2;SDS_P1;SDS_P2;PMS_P1;PMS_P2;Temp;Humidity;BMP_temperature;BMP_pressure;BME280_temperature;BME280_humidity;BME280_pressure;Samples;Min_cycle;Max_cycle;Signal;HPM_P1;HPM_P2
2022/04/24 00:02:04;;;;;;;27.75;12.48;;;13.10;99.90;;;;;;5051246;28;20063;-68
2022/04/24 00:04:30;;;;;;;31.75;14.57;;;13.10;99.90;;;;;;5051171;28;20025;-67
2022/04/24 00:06:56;;;;;;;30.15;13.30;;;13.10;99.90;;;;;;5050945;28;20188;-67
2022/04/24 00:09:22;;;;;;;31.73;13.23;;;13.00;99.90;;;;;;5051321;28;20470;-67
2022/04/24 00:11:48;;;;;;;32.65;13.50;;;13.10;99.90;;;;;;5050741;28;20086;-67
2022/04/24 00:14:14;;;;;;;26.30;13.48;;;13.10;99.90;;;;;;5051009;28;20044;-68
2022/04/24 00:16:40;;;;;;;30.10;12.75;;;13.10;99.90;;;;;;5051011;28;20060;-68
2022/04/24 00:19:06;;;;;;;32.67;13.27;;;13.00;99.90;;;;;;5051080;28;20155;-67
2022/04/24 00:21:33;;;;;;;27.88;13.45;;;13.00;99.90;;;;;;5050818;28;20057;-67
2022/04/24 00:23:59;;;;;;;28.85;12.27;;;13.00;99.90;;;;;;5050708;28;20028;-67
2022/04/24 00:26:24;;;;;;;25.40;12.32;;;13.10;99.90;;;;;;5066622;28;20033;-67
2022/04/24 00:28:50;;;;;;;31.40;13.73;;;13.10;99.90;;;;;;5067808;28;20031;-67
2022/04/24 00:31:16;;;;;;;24.90;12.25;;;13.10;99.90;;;;;;5067630;28;20067;-67
2022/04/24 00:33:41;;;;;;;22.90;12.27;;;13.00;99.90;;;;;;5069474;28;20024;-67
2022/04/24 00:36:07;;;;;;;23.63;11.82;;;13.00;99.90;;;;;;5070330;28;20051;-67
2022/04/24 00:38:36;;;;;;;22.23;11.57;;;13.00;99.90;;;;;;5070457;28;20024;-67
2022/04/24 00:41:03;;;;;;;29.20;12.38;;;12.90;99.90;;;;;;5070265;28;20025;-68
2022/04/24 00:43:29;;;;;;;26.73;12.13;;;12.80;99.90;;;;;;5069498;28;20112;-68
2022/04/24 00:46:30;;;;;;;26.42;12.38;;;12.60;99.90;;;;;;5066426;28;20132;-67
2022/04/24 00:48:56;;;;;;;27.88;11.73;;;12.50;99.90;;;;;;5066238;28;20024;-67
2022/04/24 00:51:21;;;;;;;22.88;11.82;;;12.40;99.90;;;;;;5070374;28;20033;-67
2022/04/24 00:53:47;;;;;;;30.05;13.50;;;12.20;99.90;;;;;;5070147;28;20020;-67
2022/04/24 00:56:13;;;;;;;30.85;11.02;;;12.10;99.90;;;;;;5069923;28;20032;-67
2022/04/24 00:58:39;;;;;;;28.40;12.88;;;12.00;99.90;;;;;;5070147;28;20496;-67
2022/04/24 01:01:04;;;;;;;24.83;11.63;;;11.90;99.90;;;;;;5070116;28;20040;-67
2022/04/24 01:03:30;;;;;;;26.33;11.82;;;11.80;99.90;;;;;;5067021;28;20123;-67
2022/04/24 01:05:56;;;;;;;30.35;10.93;;;11.70;99.90;;;;;;5066795;28;20039;-67
2022/04/24 01:08:22;;;;;;;26.13;11.50;;;11.70;99.90;;;;;;5069470;28;20431;-67
2022/04/24 01:10:47;;;;;;;27.50;11.45;;;11.60;99.90;;;;;;5069766;28;20027;-67
2022/04/24 01:13:13;;;;;;;25.05;12.35;;;11.60;99.90;;;;;;5070154;28;20027;-67
2022/04/24 01:15:38;;;;;;;29.25;12.10;;;11.50;99.90;;;;;;5069963;28;20362;-67
2022/04/24 01:18:06;;;;;;;27.95;12.48;;;11.50;99.90;;;;;;5069682;28;20083;-67
2022/04/24 01:20:32;;;;;;;27.15;11.23;;;11.40;99.90;;;;;;5069837;28;20393;-67
2022/04/24 01:22:57;;;;;;;29.83;12.10;;;11.40;99.90;;;;;;5069848;28;20480;-67
2022/04/24 01:25:23;;;;;;;28.20;13.23;;;11.40;99.90;;;;;;5069862;28;20230;-67
2022/04/24 01:27:49;;;;;;;25.25;12.30;;;11.30;99.90;;;;;;5069602;28;20029;-67
2022/04/24 01:30:14;;;;;;;23.25;12.52;;;11.30;99.90;;;;;;5069042;28;20416;-67
2022/04/24 01:32:40;;;;;;;25.50;11.52;;;11.30;99.90;;;;;;5049477;28;20143;-67
2022/04/24 01:35:07;;;;;;;28.27;11.93;;;11.30;99.90;;;;;;5049375;28;20052;-66
2022/04/24 01:37:33;;;;;;;26.40;11.85;;;11.30;99.90;;;;;;5049828;28;20047;-66
2022/04/24 01:39:59;;;;;;;25.77;12.10;;;11.20;99.90;;;;;;5049860;28;20531;-66
2022/04/24 01:42:24;;;;;;;29.70;12.68;;;11.20;99.90;;;;;;5049542;28;20393;-66
2022/04/24 01:44:50;;;;;;;30.88;12.18;;;11.20;99.90;;;;;;5049494;28;20187;-66
2022/04/24 01:47:16;;;;;;;23.10;11.93;;;11.10;99.90;;;;;;5066486;28;20036;-66
2022/04/24 01:49:42;;;;;;;31.65;12.38;;;11.10;99.90;;;;;;5064445;28;20027;-66
2022/04/24 01:52:08;;;;;;;27.67;12.73;;;11.00;99.90;;;;;;5066439;28;20032;-68
2022/04/24 01:54:34;;;;;;;28.35;12.38;;;11.00;99.90;;;;;;5066401;28;20020;-67
2022/04/24 01:56:59;;;;;;;28.08;11.65;;;11.00;99.90;;;;;;5066571;28;20035;-67
2022/04/24 01:59:25;;;;;;;24.88;12.55;;;11.00;99.90;;;;;;5070345;28;20053;-66
2022/04/24 02:01:51;;;;;;;25.58;13.02;;;10.90;99.90;;;;;;5070442;28;20036;-67
2022/04/24 02:04:22;;;;;;;25.23;12.95;;;10.90;99.90;;;;;;5071238;28;20024;-67
2022/04/24 02:06:49;;;;;;;27.60;11.57;;;10.90;99.90;;;;;;5063609;28;20037;-67
2022/04/24 02:09:15;;;;;;;23.20;11.90;;;10.90;99.90;;;;;;5053494;28;20033;-67
2022/04/24 02:11:40;;;;;;;24.70;11.85;;;10.90;99.90;;;;;;5051958;28;20032;-66
2022/04/24 02:14:06;;;;;;;25.35;11.63;;;10.80;99.90;;;;;;5050116;28;20025;-66
2022/04/24 02:16:32;;;;;;;28.52;12.30;;;10.80;99.90;;;;;;5049994;28;20036;-66
2022/04/24 02:18:57;;;;;;;25.55;12.27;;;10.80;99.90;;;;;;5049835;28;20018;-68
2022/04/24 02:21:23;;;;;;;33.08;12.45;;;10.70;99.90;;;;;;5050994;28;20021;-66
2022/04/24 02:23:49;;;;;;;30.15;12.35;;;10.70;99.90;;;;;;5053024;28;20025;-66
2022/04/24 02:26:15;;;;;;;30.80;13.30;;;10.70;99.90;;;;;;5067923;28;20037;-66
2022/04/24 02:28:41;;;;;;;28.33;11.95;;;10.60;99.90;;;;;;5073132;28;20444;-67
2022/04/24 02:31:06;;;;;;;30.63;12.23;;;10.60;99.90;;;;;;5072802;28;20032;-66
2022/04/24 02:33:32;;;;;;;28.75;12.20;;;10.60;99.90;;;;;;5072723;28;20024;-66
2022/04/24 02:35:57;;;;;;;29.10;12.32;;;10.60;99.90;;;;;;5072724;28;20056;-66
2022/04/24 02:38:23;;;;;;;33.42;12.40;;;10.70;99.90;;;;;;5072779;28;20028;-66
2022/04/24 02:40:49;;;;;;;30.13;11.75;;;10.60;99.90;;;;;;5072776;28;20111;-66
2022/04/24 02:43:14;;;;;;;25.15;11.98;;;10.60;99.90;;;;;;5072874;28;20033;-66
2022/04/24 02:45:40;;;;;;;26.92;11.07;;;10.50;99.90;;;;;;5072870;28;20032;-66
2022/04/24 02:48:06;;;;;;;26.60;12.20;;;10.50;99.90;;;;;;5072476;28;20090;-66
2022/04/24 02:50:32;;;;;;;26.27;11.73;;;10.40;99.90;;;;;;5072622;28;20111;-66
2022/04/24 02:52:57;;;;;;;26.63;11.55;;;10.40;99.90;;;;;;5072436;28;20428;-66
2022/04/24 02:55:24;;;;;;;25.90;13.55;;;10.40;99.90;;;;;;5072428;28;20047;-66
2022/04/24 02:57:50;;;;;;;28.55;12.00;;;10.30;99.90;;;;;;5072336;28;20441;-68
2022/04/24 03:00:21;;;;;;;25.02;11.95;;;10.30;99.90;;;;;;5072673;28;20055;-68
2022/04/24 03:02:47;;;;;;;23.75;11.63;;;10.30;99.90;;;;;;5072305;28;20024;-66
2022/04/24 03:05:15;;;;;;;22.88;11.68;;;10.30;99.90;;;;;;5072495;28;20067;-66
2022/04/24 03:07:42;;;;;;;24.17;12.20;;;10.30;99.90;;;;;;5072405;28;20081;-66
2022/04/24 03:10:08;;;;;;;27.40;12.00;;;10.30;99.90;;;;;;5071356;28;20093;-66
2022/04/24 03:12:36;;;;;;;20.63;11.35;;;10.20;99.90;;;;;;5072040;28;20086;-66
2022/04/24 03:15:03;;;;;;;23.38;10.82;;;10.10;99.90;;;;;;5071981;28;20021;-66
2022/04/24 03:17:30;;;;;;;23.80;10.68;;;10.10;99.90;;;;;;5072293;28;20032;-66
2022/04/24 03:19:55;;;;;;;25.20;10.80;;;10.10;99.90;;;;;;5071806;28;20670;-66
2022/04/24 03:22:21;;;;;;;24.17;10.15;;;10.00;99.90;;;;;;5072107;28;20020;-66
2022/04/24 03:24:46;;;;;;;23.17;10.30;;;10.00;99.90;;;;;;5071801;28;20028;-66
2022/04/24 03:27:13;;;;;;;18.35;9.80;;;9.90;99.90;;;;;;5071866;28;20024;-66
2022/04/24 03:29:38;;;;;;;23.15;10.55;;;9.90;99.90;;;;;;5072099;28;20044;-66
2022/04/24 03:32:05;;;;;;;24.08;10.27;;;9.80;99.90;;;;;;5071299;28;20502;-66
2022/04/24 03:34:31;;;;;;;25.88;10.52;;;9.80;99.90;;;;;;5069630;28;20020;-66
2022/04/24 03:36:57;;;;;;;25.20;10.70;;;9.70;99.90;;;;;;5071601;28;20055;-66
2022/04/24 03:39:22;;;;;;;20.17;9.80;;;9.70;99.90;;;;;;5071735;28;20408;-67
2022/04/24 03:41:48;;;;;;;21.85;9.60;;;9.70;99.90;;;;;;5071437;28;20462;-66
2022/04/24 03:44:13;;;;;;;25.83;10.52;;;9.60;99.90;;;;;;5071803;28;20021;-66
2022/04/24 03:46:39;;;;;;;26.67;11.10;;;9.50;99.90;;;;;;5071586;28;20041;-66
2022/04/24 03:49:05;;;;;;;25.13;10.63;;;9.50;99.90;;;;;;5071408;28;20032;-66
2022/04/24 03:51:31;;;;;;;21.85;10.85;;;9.50;99.90;;;;;;5071532;28;20115;-67
2022/04/24 03:53:56;;;;;;;24.75;10.77;;;9.50;99.90;;;;;;5071445;28;20052;-66
2022/04/24 03:56:22;;;;;;;23.50;9.95;;;9.40;99.90;;;;;;5071120;28;20428;-66
2022/04/24 03:58:48;;;;;;;26.92;10.07;;;9.40;99.90;;;;;;5071282;28;20103;-67
2022/04/24 04:01:13;;;;;;;21.73;10.45;;;9.40;99.90;;;;;;5071314;28;20506;-66
2022/04/24 04:03:39;;;;;;;21.83;9.88;;;9.30;99.90;;;;;;5070939;28;20024;-67
2022/04/24 04:06:05;;;;;;;22.80;9.85;;;9.30;99.90;;;;;;5056724;28;20033;-67
2022/04/24 04:08:30;;;;;;;20.98;9.95;;;9.30;99.90;;;;;;5051133;28;20025;-66
2022/04/24 04:10:56;;;;;;;23.45;9.35;;;9.30;99.90;;;;;;5050973;28;20029;-66
2022/04/24 04:13:21;;;;;;;29.95;10.32;;;9.30;99.90;;;;;;5051041;28;20056;-66
2022/04/24 04:15:47;;;;;;;24.35;10.75;;;9.30;99.90;;;;;;5049947;28;20029;-66
2022/04/24 04:18:12;;;;;;;24.38;10.48;;;9.30;99.90;;;;;;5047679;28;20036;-66
2022/04/24 04:20:38;;;;;;;23.05;9.45;;;9.30;99.90;;;;;;5048239;28;20496;-66
2022/04/24 04:23:04;;;;;;;26.25;10.75;;;9.20;99.90;;;;;;5051003;28;20028;-66
2022/04/24 04:25:29;;;;;;;26.75;9.52;;;9.20;99.90;;;;;;5059448;28;20079;-67
2022/04/24 04:27:55;;;;;;;26.10;10.50;;;9.20;99.90;;;;;;5070729;28;20095;-66
2022/04/24 04:30:21;;;;;;;21.55;10.35;;;9.10;99.90;;;;;;5070228;28;20044;-67
2022/04/24 04:32:47;;;;;;;20.98;9.13;;;9.00;99.90;;;;;;5067533;28;20017;-66
2022/04/24 04:35:12;;;;;;;20.45;9.50;;;9.00;99.90;;;;;;5067107;28;20055;-66
2022/04/24 04:37:39;;;;;;;26.40;10.60;;;9.00;99.90;;;;;;5068141;28;20158;-67
2022/04/24 04:40:06;;;;;;;19.33;9.85;;;8.90;99.90;;;;;;5070757;28;20048;-67
2022/04/24 04:42:32;;;;;;;28.48;11.18;;;8.90;99.90;;;;;;5070311;28;20272;-66
2022/04/24 04:45:00;;;;;;;29.52;10.40;;;8.80;99.90;;;;;;5070425;28;20400;-66
2022/04/24 04:47:27;;;;;;;24.95;11.90;;;8.80;99.90;;;;;;5070355;28;20043;-66
2022/04/24 04:49:53;;;;;;;20.70;10.38;;;8.70;99.90;;;;;;5070153;28;20074;-66
2022/04/24 04:52:19;;;;;;;27.00;10.77;;;8.60;99.90;;;;;;5070256;28;20099;-67
2022/04/24 04:54:45;;;;;;;25.02;10.45;;;8.60;99.90;;;;;;5070202;28;20233;-67
2022/04/24 04:57:10;;;;;;;27.73;10.38;;;8.70;99.90;;;;;;5069987;28;20028;-66
2022/04/24 04:59:36;;;;;;;25.70;12.35;;;8.70;99.90;;;;;;5070145;28;20115;-67
2022/04/24 05:02:01;;;;;;;20.70;11.00;;;8.70;99.90;;;;;;5068108;28;20043;-67
2022/04/24 05:04:27;;;;;;;24.42;10.90;;;8.70;99.90;;;;;;5067318;28;20016;-67
2022/04/24 05:06:53;;;;;;;26.98;11.35;;;8.70;99.90;;;;;;5067728;28;20044;-67
2022/04/24 05:09:18;;;;;;;21.35;10.95;;;8.70;99.90;;;;;;5069898;28;20354;-66
2022/04/24 05:11:44;;;;;;;23.52;10.88;;;8.80;99.90;;;;;;5069670;28;20039;-66
2022/04/24 05:14:09;;;;;;;26.13;11.52;;;8.80;99.90;;;;;;5070049;28;20059;-66
2022/04/24 05:16:35;;;;;;;20.98;10.73;;;8.90;99.90;;;;;;5069960;28;20036;-66
2022/04/24 05:19:02;;;;;;;22.05;9.85;;;8.90;99.90;;;;;;5069767;28;20033;-67
2022/04/24 05:21:28;;;;;;;25.42;11.38;;;9.00;99.90;;;;;;5070088;28;20044;-67
2022/04/24 05:23:54;;;;;;;27.80;11.70;;;9.00;99.90;;;;;;5069956;28;20029;-66
2022/04/24 05:26:20;;;;;;;30.25;11.88;;;9.00;99.90;;;;;;5068754;28;20040;-66
2022/04/24 05:28:45;;;;;;;27.50;11.65;;;9.10;99.90;;;;;;5069758;28;20016;-67
2022/04/24 05:31:11;;;;;;;28.92;11.93;;;9.10;99.90;;;;;;5069150;28;20411;-66
2022/04/24 05:33:37;;;;;;;27.40;13.18;;;9.10;99.90;;;;;;5066277;28;20039;-66
2022/04/24 05:36:07;;;;;;;26.20;11.57;;;9.20;99.90;;;;;;5066339;28;20044;-66
2022/04/24 05:38:33;;;;;;;26.35;11.95;;;9.30;99.90;;;;;;5066715;28;20020;-66
2022/04/24 05:40:58;;;;;;;23.40;11.02;;;9.40;99.90;;;;;;5067223;28;20037;-66
2022/04/24 05:43:24;;;;;;;26.92;12.00;;;9.40;99.90;;;;;;5069778;28;20389;-66
2022/04/24 05:45:50;;;;;;;31.85;12.75;;;9.50;99.90;;;;;;5069455;28;20054;-66
2022/04/24 05:48:18;;;;;;;22.38;11.40;;;9.50;99.90;;;;;;5066377;28;20029;-66
2022/04/24 05:50:44;;;;;;;29.08;11.18;;;9.60;99.90;;;;;;5066255;28;20069;-66
2022/04/24 05:53:10;;;;;;;25.20;11.95;;;9.70;99.90;;;;;;5066400;28;20111;-66
2022/04/24 05:55:35;;;;;;;27.38;12.05;;;9.70;99.90;;;;;;5066238;28;20420;-66
2022/04/24 05:58:01;;;;;;;27.17;11.80;;;9.80;99.90;;;;;;5066658;28;20020;-68
2022/04/24 06:00:27;;;;;;;31.27;11.55;;;9.90;99.90;;;;;;5066491;28;20448;-66
2022/04/24 06:02:53;;;;;;;27.77;12.63;;;10.00;99.90;;;;;;5069419;28;20028;-66
2022/04/24 06:05:19;;;;;;;27.70;12.93;;;10.20;99.90;;;;;;5064528;28;20116;-66
2022/04/24 06:07:45;;;;;;;28.67;12.68;;;10.30;99.90;;;;;;5049645;28;20100;-66
2022/04/24 06:10:11;;;;;;;26.67;13.00;;;10.40;99.90;;;;;;5049305;28;20447;-66
2022/04/24 06:13:03;;;;;;;27.23;12.05;;;10.40;99.90;;;;;;5049493;28;20067;-66
2022/04/24 06:15:29;;;;;;;27.98;12.15;;;10.60;99.90;;;;;;5047746;28;20111;-68
2022/04/24 06:17:57;;;;;;;30.73;13.65;;;10.70;99.90;;;;;;5046209;28;20025;-66
2022/04/24 06:20:24;;;;;;;25.70;12.70;;;10.80;99.90;;;;;;5046003;28;20040;-67
2022/04/24 06:22:53;;;;;;;27.27;13.55;;;10.90;99.90;;;;;;5047940;28;20469;-67
2022/04/24 06:25:33;;;;;;;25.48;12.15;;;10.90;99.90;;;;;;5053421;28;20511;-67
2022/04/24 06:28:00;;;;;;;24.85;12.10;;;11.00;99.90;;;;;;5066217;28;20031;-67
2022/04/24 06:30:28;;;;;;;27.13;13.38;;;11.10;99.90;;;;;;5066507;28;20032;-67
2022/04/24 06:32:55;;;;;;;27.60;13.93;;;11.20;99.90;;;;;;5069512;28;20044;-67
2022/04/24 06:35:21;;;;;;;26.83;13.65;;;11.40;99.90;;;;;;5069079;28;20049;-67
2022/04/24 06:37:48;;;;;;;28.33;14.00;;;11.50;99.90;;;;;;5069111;28;20024;-67
2022/04/24 06:40:16;;;;;;;28.75;12.98;;;11.60;99.90;;;;;;5069099;28;20460;-67
2022/04/24 06:42:53;;;;;;;23.30;13.30;;;11.70;99.90;;;;;;5068969;28;20040;-67
2022/04/24 06:45:27;;;;;;;28.63;14.32;;;11.80;99.90;;;;;;5071072;28;20028;-67
2022/04/24 06:48:01;;;;;;;29.42;13.77;;;11.80;99.90;;;;;;5072867;28;20043;-66
2022/04/24 06:50:28;;;;;;;28.40;14.52;;;11.90;99.90;;;;;;5072446;28;20478;-67
2022/04/24 06:53:04;;;;;;;26.75;13.90;;;12.10;99.90;;;;;;5072689;28;20497;-67
2022/04/24 06:55:31;;;;;;;26.20;13.88;;;12.20;99.90;;;;;;5072424;28;20074;-67
2022/04/24 06:57:57;;;;;;;28.52;13.90;;;12.40;99.90;;;;;;5072485;28;20024;-66
2022/04/24 07:00:24;;;;;;;27.95;13.68;;;12.70;99.90;;;;;;5072390;28;20385;-67
2022/04/24 07:02:50;;;;;;;30.70;13.45;;;13.00;99.90;;;;;;5070241;28;20381;-67
2022/04/24 07:05:16;;;;;;;26.27;13.25;;;13.40;99.90;;;;;;5068764;28;20033;-67
2022/04/24 07:07:42;;;;;;;24.30;13.52;;;14.10;99.90;;;;;;5070736;28;20028;-67
2022/04/24 07:10:09;;;;;;;26.92;13.52;;;14.80;99.90;;;;;;5072183;28;20029;-67
2022/04/24 07:12:44;;;;;;;27.48;13.20;;;15.20;99.70;;;;;;5072066;28;20049;-67
2022/04/24 07:15:10;;;;;;;24.70;12.75;;;15.50;98.20;;;;;;5072115;28;20078;-67
2022/04/24 07:17:35;;;;;;;21.60;14.02;;;15.60;94.80;;;;;;5070073;28;20032;-67
2022/04/24 07:20:01;;;;;;;24.17;13.50;;;15.60;94.00;;;;;;5068815;28;20028;-67
2022/04/24 07:22:26;;;;;;;25.13;13.45;;;16.20;94.40;;;;;;5068163;28;20353;-67
2022/04/24 07:24:52;;;;;;;26.38;13.75;;;16.70;91.70;;;;;;5070369;28;20153;-67
2022/04/24 07:27:17;;;;;;;21.55;12.68;;;17.30;89.30;;;;;;5071574;28;20039;-67
2022/04/24 07:29:43;;;;;;;23.33;14.02;;;17.20;88.40;;;;;;5071847;28;20029;-67
2022/04/24 07:32:09;;;;;;;26.35;13.63;;;17.40;84.20;;;;;;5071968;28;20036;-67
2022/04/24 07:34:34;;;;;;;21.98;13.43;;;17.90;81.60;;;;;;5071719;28;20111;-67
2022/04/24 07:37:00;;;;;;;21.20;13.70;;;18.10;81.50;;;;;;5071589;28;20119;-68
2022/04/24 07:39:25;;;;;;;21.98;13.95;;;17.90;78.60;;;;;;5071550;28;20043;-68
2022/04/24 07:41:51;;;;;;;23.20;13.57;;;18.20;78.20;;;;;;5071455;28;20029;-67
2022/04/24 07:44:17;;;;;;;21.48;13.57;;;18.00;78.80;;;;;;5071622;28;20035;-68
2022/04/24 07:46:42;;;;;;;20.40;13.05;;;18.10;80.80;;;;;;5071582;28;20052;-67
2022/04/24 07:49:08;;;;;;;22.23;13.18;;;18.90;76.40;;;;;;5071442;28;20039;-67
2022/04/24 07:51:34;;;;;;;24.67;14.13;;;19.00;74.90;;;;;;5071919;28;20397;-68
2022/04/24 07:53:59;;;;;;;18.73;13.60;;;19.30;72.60;;;;;;5071594;28;20052;-67
2022/04/24 07:56:25;;;;;;;21.98;13.70;;;19.30;71.30;;;;;;5070711;28;20073;-68
2022/04/24 07:58:51;;;;;;;22.95;13.75;;;19.40;71.10;;;;;;5071061;28;20448;-67
2022/04/24 08:01:17;;;;;;;19.23;13.55;;;19.80;69.00;;;;;;5071222;28;20546;-68
2022/04/24 08:03:43;;;;;;;19.58;13.00;;;20.00;67.40;;;;;;5071378;28;20036;-67
2022/04/24 08:06:09;;;;;;;22.27;13.75;;;20.00;66.00;;;;;;5070935;28;20051;-67
2022/04/24 08:08:34;;;;;;;23.42;14.18;;;20.40;63.60;;;;;;5060428;28;20027;-67
2022/04/24 08:11:00;;;;;;;21.02;12.30;;;20.30;62.00;;;;;;5050949;28;20159;-67
2022/04/24 08:13:26;;;;;;;16.30;12.23;;;20.60;61.70;;;;;;5051263;28;20400;-69
2022/04/24 08:15:52;;;;;;;19.15;12.65;;;20.90;59.00;;;;;;5051466;28;20456;-67
2022/04/24 08:18:19;;;;;;;20.00;12.27;;;21.10;58.40;;;;;;5052752;28;20521;-68
2022/04/24 08:20:45;;;;;;;17.05;12.50;;;21.40;57.20;;;;;;5052391;28;20123;-68
2022/04/24 08:23:12;;;;;;;19.38;11.90;;;21.20;56.00;;;;;;5050861;28;20036;-68
2022/04/24 08:25:39;;;;;;;17.58;11.45;;;21.90;53.70;;;;;;5060251;28;20481;-68
2022/04/24 08:28:09;;;;;;;14.35;11.70;;;22.10;49.30;;;;;;5070991;28;20021;-69
2022/04/24 08:30:38;;;;;;;20.55;12.35;;;22.40;49.20;;;;;;5071162;28;20040;-68
2022/04/24 08:33:04;;;;;;;22.90;11.77;;;22.20;48.80;;;;;;5070584;28;20021;-68
2022/04/24 08:35:30;;;;;;;19.33;12.00;;;22.40;48.70;;;;;;5070337;28;20076;-67
2022/04/24 08:37:55;;;;;;;18.40;11.18;;;22.70;47.10;;;;;;5070608;28;20063;-68
2022/04/24 08:40:24;;;;;;;18.00;11.00;;;23.10;45.50;;;;;;5069217;28;20381;-69
2022/04/24 08:42:51;;;;;;;17.08;11.23;;;23.20;44.70;;;;;;5070449;28;20035;-69
2022/04/24 08:45:17;;;;;;;15.95;10.88;;;23.30;43.80;;;;;;5070126;28;20082;-68
2022/04/24 08:47:44;;;;;;;18.08;10.70;;;23.40;42.20;;;;;;5070445;28;20036;-68
2022/04/24 08:50:11;;;;;;;18.52;11.30;;;23.70;42.20;;;;;;5066367;28;20070;-69
2022/04/24 08:52:37;;;;;;;16.83;10.30;;;24.30;43.20;;;;;;5050357;28;20132;-69
2022/04/24 08:55:03;;;;;;;16.58;10.48;;;24.70;39.40;;;;;;5055655;28;20035;-69
2022/04/24 08:57:30;;;;;;;14.63;10.15;;;25.30;37.20;;;;;;5066315;28;20480;-67
2022/04/24 08:59:57;;;;;;;14.77;10.00;;;25.20;33.40;;;;;;5066908;28;20028;-67
2022/04/24 09:02:23;;;;;;;18.25;10.52;;;25.80;33.10;;;;;;5054066;28;20044;-74
2022/04/24 09:04:52;;;;;;;14.98;10.80;;;25.80;32.40;;;;;;5048634;28;20630;-68
2022/04/24 09:07:18;;;;;;;18.75;11.25;;;26.50;30.10;;;;;;5049458;28;20524;-68
2022/04/24 09:09:49;;;;;;;16.45;9.93;;;27.00;30.20;;;;;;5050219;28;20052;-68
2022/04/24 09:12:23;;;;;;;15.75;10.77;;;27.50;28.10;;;;;;5049935;28;20477;-66
2022/04/24 09:14:54;;;;;;;15.98;10.85;;;27.80;25.20;;;;;;5065390;28;20037;-69
2022/04/24 09:17:22;;;;;;;14.73;9.52;;;28.00;24.90;;;;;;5069910;28;20469;-69
2022/04/24 09:19:48;;;;;;;13.80;9.95;;;27.60;25.60;;;;;;5069853;28;20094;-67
2022/04/24 09:22:14;;;;;;;14.38;9.45;;;28.10;24.40;;;;;;5069450;28;20035;-71
2022/04/24 09:24:54;;;;;;;10.70;9.05;;;28.50;23.80;;;;;;5069844;28;20427;-69
2022/04/24 09:27:24;;;;;;;11.70;8.60;;;28.40;22.70;;;;;;5068454;28;20423;-73
2022/04/24 09:30:11;;;;;;;11.93;8.05;;;28.50;21.20;;;;;;5070150;28;20111;-67
2022/04/24 09:32:46;;;;;;;15.50;9.52;;;28.50;21.20;;;;;;5069554;28;20066;-68
2022/04/24 09:35:25;;;;;;;11.43;9.30;;;29.30;21.00;;;;;;5069717;28;20040;-67
2022/04/24 09:37:51;;;;;;;12.48;9.60;;;29.80;19.30;;;;;;5068415;28;20044;-71
2022/04/24 09:40:17;;;;;;;14.15;8.50;;;30.30;19.00;;;;;;5069600;28;20139;-70
2022/04/24 09:42:55;;;;;;;10.95;7.75;;;30.80;18.60;;;;;;5066750;28;20082;-68
2022/04/24 09:45:25;;;;;;;11.52;8.15;;;31.10;18.20;;;;;;5066539;28;20144;-71
2022/04/24 09:47:59;;;;;;;12.38;8.25;;;31.90;17.40;;;;;;5066793;28;20035;-72
2022/04/24 09:50:29;;;;;;;13.57;8.88;;;31.80;16.60;;;;;;5066929;28;20033;-71
2022/04/24 09:52:58;;;;;;;;;;;31.80;16.40;;;;;;5067164;28;20097;-72
2022/04/24 09:55:25;;;;;;;12.07;7.47;;;32.60;16.30;;;;;;5066292;28;19919;-70
2022/04/24 09:57:52;;;;;;;11.35;8.35;;;33.50;14.90;;;;;;5050369;28;20108;-69
2022/04/24 10:00:18;;;;;;;10.43;7.40;;;32.50;14.50;;;;;;5062245;28;20021;-69
2022/04/24 10:02:45;;;;;;;13.65;7.93;;;32.90;13.90;;;;;;5066135;28;20123;-70
2022/04/24 10:05:14;;;;;;;8.77;6.43;;;32.90;13.80;;;;;;5066301;28;20052;-70
2022/04/24 10:07:40;;;;;;;9.07;7.07;;;33.30;13.70;;;;;;5066277;28;20036;-74
2022/04/24 10:10:07;;;;;;;10.13;7.70;;;33.40;13.70;;;;;;5063535;28;20102;-70
2022/04/24 10:12:33;;;;;;;10.68;7.40;;;34.20;13.00;;;;;;5066190;28;20111;-70
2022/04/24 10:15:06;;;;;;;10.65;7.15;;;34.20;11.60;;;;;;5066712;28;20020;-70
2022/04/24 10:17:34;;;;;;;10.15;7.10;;;33.80;12.50;;;;;;5066252;28;20027;-69
2022/04/24 10:20:26;;;;;;;10.23;7.35;;;35.00;12.00;;;;;;5069806;28;20149;-69
2022/04/24 10:22:55;;;;;;;12.45;6.95;;;35.50;11.00;;;;;;5075364;28;20031;-69
2022/04/24 10:25:41;;;;;;;10.67;7.97;;;35.60;11.00;;;;;;5073282;28;20098;-71
2022/04/24 10:28:18;;;;;;;9.15;7.15;;;35.20;10.70;;;;;;5073847;28;20034;-70
2022/04/24 10:30:56;;;;;;;9.13;7.05;;;34.50;12.20;;;;;;5073718;28;20427;-69
2022/04/24 10:33:23;;;;;;;8.85;6.80;;;34.50;12.00;;;;;;5074837;28;20025;-70
2022/04/24 10:35:52;;;;;;;10.15;7.07;;;34.30;11.40;;;;;;5073687;28;20096;-70
2022/04/24 10:38:19;;;;;;;7.00;6.20;;;35.20;10.60;;;;;;5069858;28;20358;-70
2022/04/24 10:41:05;;;;;;;8.32;6.57;;;35.70;9.90;;;;;;5069496;28;20039;-69
2022/04/24 10:43:46;;;;;;;6.97;5.65;;;36.20;10.30;;;;;;5069786;28;20075;-70
2022/04/24 10:46:28;;;;;;;12.27;6.63;;;37.00;10.10;;;;;;5069506;28;20399;-70
2022/04/24 10:49:05;;;;;;;9.90;5.85;;;36.60;9.00;;;;;;5069397;28;20392;-69
2022/04/24 10:51:32;;;;;;;8.30;6.05;;;35.90;9.50;;;;;;5069355;28;20074;-69
2022/04/24 10:54:08;;;;;;;8.13;6.50;;;36.00;8.60;;;;;;5069660;28;20052;-70
2022/04/24 10:56:36;;;;;;;9.55;5.57;;;36.00;9.00;;;;;;5069077;28;20099;-71
2022/04/24 10:59:12;;;;;;;8.27;5.75;;;36.10;9.70;;;;;;5069403;28;20029;-70
2022/04/24 11:01:47;;;;;;;6.50;5.07;;;36.30;8.80;;;;;;5069334;28;20042;-69
2022/04/24 11:04:14;;;;;;;9.75;6.20;;;37.00;9.90;;;;;;5069501;28;20029;-70
2022/04/24 11:07:04;;;;;;;6.30;5.65;;;37.20;7.30;;;;;;5069226;28;20048;-70
2022/04/24 11:09:35;;;;;;;11.50;6.35;;;37.20;7.30;;;;;;5069430;28;20027;-70
2022/04/24 11:12:06;;;;;;;7.45;5.38;;;35.90;7.60;;;;;;5068832;28;20466;-72
2022/04/24 11:14:32;;;;;;;7.38;5.82;;;36.20;7.80;;;;;;5069207;28;20032;-69
2022/04/24 11:17:05;;;;;;;8.50;5.82;;;36.10;7.80;;;;;;5068954;28;20033;-69
2022/04/24 11:19:36;;;;;;;6.20;5.60;;;36.10;7.40;;;;;;5069067;28;20031;-69
2022/04/24 11:22:05;;;;;;;6.57;5.38;;;37.00;7.50;;;;;;5068789;28;20063;-71
2022/04/24 11:24:38;;;;;;;7.03;5.03;;;37.40;7.50;;;;;;5068332;28;20041;-68
2022/04/24 11:27:09;;;;;;;6.38;5.53;;;37.30;7.20;;;;;;5068561;28;20099;-69
2022/04/24 11:29:34;;;;;;;5.97;5.00;;;37.20;6.50;;;;;;5068837;28;20115;-69
2022/04/24 11:32:02;;;;;;;7.35;5.45;;;38.00;6.80;;;;;;5068234;28;20099;-70
2022/04/24 11:34:28;;;;;;;7.45;4.85;;;37.70;6.50;;;;;;5068407;28;20488;-69
2022/04/24 11:36:58;;;;;;;7.50;5.18;;;35.80;6.80;;;;;;5068369;28;20141;-70
2022/04/24 11:39:25;;;;;;;7.28;5.32;;;35.00;7.00;;;;;;5068600;28;20037;-70
2022/04/24 11:41:52;;;;;;;7.03;5.22;;;36.00;7.40;;;;;;5068334;28;20082;-69
2022/04/24 11:52:36;;;;;;;8.02;5.70;;;34.80;8.00;;;;;;5068936;28;20043;-72
2022/04/24 11:55:07;;;;;;;8.52;5.35;;;35.30;7.70;;;;;;5068575;28;20099;-71
2022/04/24 11:57:33;;;;;;;6.68;5.55;;;34.60;7.70;;;;;;5068503;28;20039;-71
2022/04/24 11:59:59;;;;;;;5.85;4.93;;;35.10;8.20;;;;;;5068317;28;20024;-71
2022/04/24 12:02:27;;;;;;;6.82;5.43;;;35.30;7.70;;;;;;5068233;28;20258;-73
2022/04/24 12:04:55;;;;;;;6.57;5.10;;;35.70;7.30;;;;;;5068203;28;20107;-71
2022/04/24 12:07:31;;;;;;;6.28;5.35;;;32.40;7.10;;;;;;5068024;28;20041;-71
2022/04/24 12:09:58;;;;;;;5.53;5.00;;;34.50;8.90;;;;;;5067831;28;20040;-71
2022/04/24 12:12:24;;;;;;;7.18;5.55;;;35.40;8.10;;;;;;5067288;28;20028;-71
2022/04/24 12:14:53;;;;;;;6.63;5.28;;;35.40;7.10;;;;;;5050347;28;20036;-74
2022/04/24 12:17:19;;;;;;;6.22;5.25;;;34.50;7.60;;;;;;5048324;28;20032;-72
2022/04/24 12:19:56;;;;;;;5.68;4.97;;;35.10;8.40;;;;;;5048116;28;20051;-71
2022/04/24 12:22:30;;;;;;;5.95;5.35;;;33.10;9.10;;;;;;5048193;28;20017;-71
2022/04/24 12:25:28;;;;;;;6.28;5.57;;;34.60;7.90;;;;;;5050393;28;20175;-70
2022/04/24 12:27:56;;;;;;;6.85;5.43;;;35.50;7.50;;;;;;5044457;28;20040;-71
2022/04/24 12:30:24;;;;;;;6.78;5.32;;;35.50;7.60;;;;;;5067714;28;20476;-71
2022/04/24 12:32:50;;;;;;;5.63;4.85;;;35.40;7.50;;;;;;5067775;28;20035;-70
2022/04/24 12:35:30;;;;;;;5.32;4.82;;;33.40;6.00;;;;;;5067268;28;20052;-70
2022/04/24 12:37:55;;;;;;;7.38;5.22;;;32.30;7.50;;;;;;5068072;28;20036;-69
2022/04/24 12:40:21;;;;;;;6.70;4.82;;;34.20;7.90;;;;;;5067577;28;20272;-70
2022/04/24 12:42:52;;;;;;;5.78;4.70;;;35.00;8.00;;;;;;5066351;28;20036;-71
2022/04/24 12:45:20;;;;;;;6.25;5.25;;;35.70;7.20;;;;;;5067170;28;20090;-71
2022/04/24 12:47:46;;;;;;;6.88;5.07;;;36.20;6.50;;;;;;5067239;28;20032;-69